Time;durP1;ratioP1;P1;durP2;ratioP2;P2;SDS_P1;SDS_P2;PMS_P1;PMS_P2;Temp;Humidity;BMP_temperature;BMP_pressure;BME280_temperature;BME280_humidity;BME280_pressure;Samples;Min_cycle;Max_cycle;Signal;HPM_P1;HPM_P2
2023/10/18 00:01:45;;;;;;;47.58;22.10;;;;;;;4.54;100.00;100694.22;5054211;28;20105;-84
2023/10/18 00:04:14;;;;;;;53.92;24.40;;;;;;;4.50;100.00;100692.28;5052791;28;20178;-84
2023/10/18 00:06:40;;;;;;;54.20;23.92;;;;;;;4.28;100.00;100660.06;5052836;28;20029;-83
2023/10/18 00:11:51;;;;;;;50.42;23.88;;;;;;;4.24;100.00;100661.41;5054085;28;20184;-83
2023/10/18 00:14:18;;;;;;;53.03;24.50;;;;;;;4.33;100.00;100687.84;5054067;28;20040;-83
2023/10/18 00:16:44;;;;;;;57.10;24.33;;;;;;;4.33;100.00;100687.84;5054184;28;20029;-85
2023/10/18 00:19:31;;;;;;;56.30;24.63;;;;;;;4.16;100.00;100666.44;5052760;28;20037;-84
2023/10/18 00:21:58;;;;;;;48.10;22.30;;;;;;;4.18;100.00;100675.25;5053571;28;20025;-82
2023/10/18 00:24:23;;;;;;;45.78;21.05;;;;;;;4.13;100.00;100674.97;5053688;28;20040;-82
2023/10/18 00:26:51;;;;;;;50.10;23.30;;;;;;;4.13;100.00;100684.28;5050045;28;20470;-84
2023/10/18 00:29:22;;;;;;;60.13;24.08;;;;;;;4.18;100.00;100694.25;5053938;28;20032;-83
2023/10/18 00:31:47;;;;;;;56.83;24.92;;;;;;;4.14;100.00;100693.56;5056413;28;20116;-83
2023/10/18 00:34:13;;;;;;;55.70;25.48;;;;;;;3.96;100.00;100662.88;5057071;28;20127;-82
2023/10/18 00:36:40;;;;;;;44.85;22.08;;;;;;;4.06;100.00;100695.75;5057482;28;20083;-83
2023/10/18 00:39:20;;;;;;;46.45;24.58;;;;;;;4.03;100.00;100680.44;5057968;28;20028;-83
2023/10/18 00:41:52;;;;;;;51.80;24.48;;;;;;;4.01;100.00;100690.63;5056790;28;20052;-82
2023/10/18 00:44:18;;;;;;;;;;;;;;;3.97;100.00;100682.19;5058441;28;20040;-83
2023/10/18 00:46:43;;;;;;;54.80;26.08;;;;;;;3.91;100.00;100677.53;5039547;28;20003;-82
2023/10/18 00:49:18;;;;;;;54.65;25.23;;;;;;;3.65;100.00;100643.34;5057221;28;20036;-84
2023/10/18 00:51:44;;;;;;;55.88;25.10;;;;;;;3.85;100.00;100687.72;5056889;28;20075;-83
2023/10/18 00:54:11;;;;;;;58.35;28.15;;;;;;;3.83;100.00;100676.03;5056450;28;20076;-82
2023/10/18 00:56:46;;;;;;;64.25;28.50;;;;;;;3.68;100.00;100650.13;5068340;28;20079;-82
2023/10/18 00:59:26;;;;;;;60.17;27.52;;;;;;;3.80;100.00;100676.94;5078985;28;20032;-82
2023/10/18 01:02:06;;;;;;;62.35;29.05;;;;;;;3.80;100.00;100685.41;5082430;28;20020;-83
2023/10/18 01:04:41;;;;;;;55.40;27.92;;;;;;;3.76;100.00;100679.84;5073496;28;20066;-81
2023/10/18 01:07:15;;;;;;;60.03;27.02;;;;;;;3.72;100.00;100676.28;5098962;28;20159;-83
2023/10/18 01:09:49;;;;;;;59.60;28.73;;;;;;;3.67;100.00;100673.19;5081092;28;20460;-81
2023/10/18 01:12:34;;;;;;;63.00;27.38;;;;;;;3.62;100.00;100666.78;5082141;28;20482;-82
2023/10/18 01:15:33;;;;;;;60.25;27.38;;;;;;;3.69;100.00;100677.16;5080172;28;20041;-80
2023/10/18 01:18:01;;;;;;;65.93;29.50;;;;;;;3.42;100.00;100640.63;5076213;28;20033;-81
2023/10/18 01:20:29;;;;;;;55.30;27.77;;;;;;;3.33;100.00;100619.84;5063172;28;20032;-82
2023/10/18 01:22:55;;;;;;;53.45;27.40;;;;;;;3.55;100.00;100649.22;5078127;28;20056;-82
2023/10/18 01:25:20;;;;;;;63.78;29.42;;;;;;;3.55;100.00;100654.84;5043389;28;20078;-81
2023/10/18 01:27:47;;;;;;;58.88;28.60;;;;;;;3.49;100.00;100639.66;5043303;28;20082;-81
2023/10/18 01:30:19;;;;;;;65.47;27.95;;;;;;;3.47;100.00;100637.28;5079232;28;20502;-83
2023/10/18 01:33:04;;;;;;;57.47;26.80;;;;;;;3.65;100.00;100665.94;5077184;28;20116;-83
2023/10/18 01:35:53;;;;;;;69.97;28.27;;;;;;;3.62;100.00;100672.44;5063361;28;20048;-81
2023/10/18 01:38:26;;;;;;;73.47;30.90;;;;;;;3.58;100.00;100663.25;5081629;28;20028;-81
2023/10/18 01:40:53;;;;;;;69.10;27.80;;;;;;;3.57;100.00;100658.06;5082400;28;20028;-82
2023/10/18 01:43:19;;;;;;;70.50;29.75;;;;;;;3.39;100.00;100638.63;5084719;28;20063;-83
2023/10/18 01:45:48;;;;;;;63.53;28.38;;;;;;;3.44;100.00;100642.97;5064462;28;20032;-84
2023/10/18 01:48:20;;;;;;;52.95;25.73;;;;;;;3.36;100.00;100633.88;5082166;28;20434;-82
2023/10/18 01:50:46;;;;;;;62.92;27.00;;;;;;;3.41;100.00;100649.50;5083886;28;20028;-82
2023/10/18 01:53:15;;;;;;;53.50;24.85;;;;;;;3.34;100.00;100641.19;5062239;28;20460;-82
2023/10/18 01:55:53;;;;;;;48.53;23.38;;;;;;;3.32;100.00;100644.44;5079908;28;20177;-82
2023/10/18 01:58:26;;;;;;;61.05;24.35;;;;;;;3.26;100.00;100648.22;5081703;28;20040;-83
2023/10/18 02:00:56;;;;;;;55.20;24.67;;;;;;;3.17;100.00;100646.78;5064209;28;20029;-83
2023/10/18 02:03:23;;;;;;;66.10;27.30;;;;;;;3.00;100.00;100619.69;5063694;28;20029;-81
2023/10/18 02:05:50;;;;;;;51.22;23.63;;;;;;;3.06;100.00;100645.38;5029619;28;20528;-82
2023/10/18 02:08:16;;;;;;;66.93;25.60;;;;;;;3.08;100.00;100637.28;5076893;28;20028;-82
2023/10/18 02:10:44;;;;;;;61.53;24.25;;;;;;;3.00;100.00;100624.53;5059031;28;20078;-81
2023/10/18 02:13:15;;;;;;;53.95;23.13;;;;;;;2.87;100.00;100620.75;5059544;28;20037;-80
2023/10/18 02:15:41;;;;;;;54.90;22.38;;;;;;;2.96;100.00;100632.28;5072185;28;20085;-82
2023/10/18 02:18:10;;;;;;;70.80;25.02;;;;;;;2.91;100.00;100636.38;5058616;28;20023;-82
2023/10/18 02:20:39;;;;;;;55.42;24.50;;;;;;;2.90;100.00;100639.63;5041696;28;20439;-82
2023/10/18 02:23:13;;;;;;;53.85;24.65;;;;;;;2.90;100.00;100642.47;5078341;28;20028;-83
2023/10/18 02:28:28;;;;;;;63.67;25.15;;;;;;;2.79;100.00;100620.88;5064741;28;20488;-82
2023/10/18 02:31:10;;;;;;;80.22;23.75;;;;;;;2.92;100.00;100628.72;5069340;28;20139;-82
2023/10/18 02:33:38;;;;;;;64.03;24.33;;;;;;;2.93;100.00;100631.13;5086692;28;20381;-84
2023/10/18 02:36:06;;;;;;;72.68;24.75;;;;;;;2.92;100.00;100623.88;5080609;28;20082;-83
2023/10/18 02:38:33;;;;;;;65.68;24.15;;;;;;;2.93;100.00;100627.50;5076864;28;20538;-82
2023/10/18 02:41:14;;;;;;;56.83;24.30;;;;;;;2.95;100.00;100623.00;5075575;28;20481;-82
2023/10/18 02:43:52;;;;;;;78.57;23.88;;;;;;;3.03;100.00;100632.91;5076074;28;20024;-83
2023/10/18 02:46:27;;;;;;;71.00;23.75;;;;;;;2.97;100.00;100620.56;5043368;28;20144;-82
2023/10/18 02:49:00;;;;;;;62.78;23.48;;;;;;;3.03;100.00;100635.72;5059578;28;20331;-83
2023/10/18 02:51:28;;;;;;;47.97;22.23;;;;;;;2.96;100.00;100633.06;5042975;28;20029;-81
2023/10/18 02:54:13;;;;;;;49.22;22.23;;;;;;;2.91;100.00;100636.38;5057031;28;20564;-83
2023/10/18 02:56:38;;;;;;;44.25;20.52;;;;;;;2.97;100.00;100645.97;5075567;28;20044;-82
2023/10/18 02:59:08;;;;;;;51.65;21.40;;;;;;;2.94;100.00;100649.63;5058380;28;20028;-83
2023/10/18 03:01:39;;;;;;;53.47;23.23;;;;;;;2.83;100.00;100643.41;5079276;28;20027;-83
2023/10/18 03:04:16;;;;;;;50.13;21.60;;;;;;;2.82;100.00;100635.38;5042653;28;20048;-81
2023/10/18 03:06:45;;;;;;;53.22;23.08;;;;;;;2.75;100.00;100633.47;5042107;28;20032;-83
2023/10/18 03:11:55;;;;;;;52.80;21.63;;;;;;;2.67;100.00;100655.38;5076010;28;20191;-82
2023/10/18 03:15:09;;;;;;;48.72;22.55;;;;;;;2.61;100.00;100650.66;5058668;28;20056;-83
2023/10/18 03:19:56;;;;;;;52.08;23.88;;;;;;;2.52;100.00;100656.06;5060426;28;20539;-81
2023/10/18 03:22:26;;;;;;;56.53;23.75;;;;;;;2.31;100.00;100620.53;5058037;28;20032;-82
2023/10/18 03:24:54;;;;;;;53.63;24.77;;;;;;;2.35;100.00;100644.63;5041829;28;20060;-82
2023/10/18 03:27:21;;;;;;;50.97;23.95;;;;;;;2.34;100.00;100639.44;5074770;28;20037;-83
2023/10/18 03:29:47;;;;;;;43.58;21.13;;;;;;;2.21;100.00;100639.25;5057374;28;20033;-83
2023/10/18 03:32:19;;;;;;;53.15;21.13;;;;;;;2.22;100.00;100637.22;5040336;28;20086;-82
2023/10/18 03:34:46;;;;;;;41.72;20.50;;;;;;;2.13;100.00;100634.16;5075511;28;20097;-82
2023/10/18 03:37:24;;;;;;;43.80;22.40;;;;;;;2.02;100.00;100625.84;5041207;28;20032;-82
2023/10/18 03:39:55;;;;;;;41.33;19.40;;;;;;;2.08;100.00;100640.25;5042101;28;20551;-83
2023/10/18 03:42:33;;;;;;;41.05;20.05;;;;;;;2.04;100.00;100631.88;5058140;28;20024;-83
2023/10/18 03:45:01;;;;;;;35.75;18.98;;;;;;;2.03;100.00;100632.28;5075399;28;20029;-83
2023/10/18 03:47:29;;;;;;;40.85;18.67;;;;;;;1.98;100.00;100632.78;5074648;28;20107;-82
2023/10/18 03:49:55;;;;;;;34.17;16.48;;;;;;;1.98;100.00;100625.13;5057242;28;20032;-81
2023/10/18 03:52:21;;;;;;;41.47;18.45;;;;;;;1.96;100.00;100626.75;5057105;28;20032;-84
2023/10/18 03:57:39;;;;;;;38.95;17.83;;;;;;;1.74;100.00;100609.41;5053344;28;20099;-83
2023/10/18 04:00:56;;;;;;;32.05;17.48;;;;;;;1.86;100.00;100622.88;5053382;28;20036;-83
2023/10/18 04:03:08;;;;;;;37.67;17.67;;;;;;;1.82;100.00;100619.31;5037248;28;20036;-82
2023/10/18 04:05:45;;;;;;;42.22;19.08;;;;;;;1.81;100.00;100612.88;5052440;28;20024;-81
2023/10/18 04:08:17;;;;;;;40.20;19.88;;;;;;;1.80;100.00;100616.13;5053698;28;20378;-81
2023/10/18 04:10:44;;;;;;;37.35;19.20;;;;;;;1.69;100.00;100596.59;5054733;28;20033;-81
2023/10/18 04:13:19;;;;;;;38.10;18.60;;;;;;;1.65;100.00;100592.22;5053412;28;20037;-82
2023/10/18 04:15:45;;;;;;;33.55;16.65;;;;;;;1.73;100.00;100599.34;5054419;28;20044;-82
2023/10/18 04:18:13;;;;;;;37.55;16.58;;;;;;;1.71;100.00;100598.97;5053321;28;20066;-83
2023/10/18 04:21:01;;;;;;;41.92;20.05;;;;;;;1.69;100.00;100588.13;5020520;28;20033;-81
2023/10/18 04:23:27;;;;;;;32.83;17.35;;;;;;;1.69;100.00;100592.97;5053550;28;20052;-84
2023/10/18 04:25:57;;;;;;;39.60;17.30;;;;;;;1.69;100.00;100590.16;5053218;28;20021;-82
2023/10/18 04:28:43;;;;;;;32.63;17.38;;;;;;;1.67;100.00;100587.75;5054308;28;20052;-82
2023/10/18 04:31:11;;;;;;;36.08;18.02;;;;;;;1.62;100.00;100584.63;5050451;28;20033;-82
2023/10/18 04:33:42;;;;;;;35.47;18.25;;;;;;;1.64;100.00;100576.56;5053915;28;20043;-82
2023/10/18 04:36:24;;;;;;;34.17;19.45;;;;;;;1.55;100.00;100570.66;5054270;28;20028;-82
2023/10/18 04:38:51;;;;;;;37.50;18.42;;;;;;;1.59;100.00;100580.66;5036977;28;20029;-83
2023/10/18 04:41:24;;;;;;;32.13;16.17;;;;;;;1.49;100.00;100564.69;5054305;28;20497;-85
2023/10/18 04:44:17;;;;;;;39.80;17.70;;;;;;;1.52;100.00;100571.50;5036764;28;20025;-83
2023/10/18 04:46:53;;;;;;;38.28;16.02;;;;;;;1.50;100.00;100577.56;5054243;28;20044;-85
2023/10/18 04:53:09;;;;;;;28.63;15.15;;;;;;;1.39;100.00;100568.47;5074959;28;20121;-81
2023/10/18 04:55:11;;;;;;;39.22;17.30;;;;;;;1.35;100.00;100562.88;5068144;28;20039;-81
2023/10/18 04:57:42;;;;;;;37.33;18.02;;;;;;;1.44;100.00;100585.69;5092540;28;20144;-82
2023/10/18 05:00:25;;;;;;;36.55;17.98;;;;;;;1.46;100.00;100590.88;5076827;28;20097;-84
2023/10/18 05:03:17;;;;;;;35.28;16.75;;;;;;;1.43;100.00;100597.34;5079503;28;20047;-81
2023/10/18 05:05:44;;;;;;;36.92;16.88;;;;;;;1.44;100.00;100590.50;5082130;28;20393;-82
2023/10/18 05:08:13;;;;;;;34.70;17.73;;;;;;;1.42;100.00;100590.13;5097292;28;20104;-83
2023/10/18 05:11:22;;;;;;;33.85;16.75;;;;;;;1.10;100.00;100542.72;5106590;28;20058;-82
2023/10/18 05:13:43;;;;;;;33.92;15.88;;;;;;;1.42;100.00;100588.13;5112082;28;20029;-80
2023/10/18 05:16:11;;;;;;;37.28;16.60;;;;;;;1.42;100.00;100593.75;5087192;28;20035;-78
2023/10/18 05:18:58;;;;;;;34.50;14.93;;;;;;;1.40;100.00;100596.16;5103520;28;20028;-80
2023/10/18 05:21:25;;;;;;;37.70;16.40;;;;;;;1.38;100.00;100586.56;5100717;28;20028;-79
2023/10/18 05:24:06;;;;;;;38.88;17.25;;;;;;;1.38;100.00;100590.19;5102904;28;20017;-80
2023/10/18 05:26:34;;;;;;;38.70;18.02;;;;;;;1.36;100.00;100584.16;5083551;28;20085;-78
2023/10/18 05:29:05;;;;;;;39.33;17.13;;;;;;;1.28;100.00;100573.44;5098223;28;20085;-80
2023/10/18 05:31:44;;;;;;;34.13;15.48;;;;;;;1.38;100.00;100593.00;5100773;28;20028;-78
2023/10/18 05:36:54;;;;;;;34.47;16.40;;;;;;;1.30;100.00;100569.00;5088317;28;20068;-82
2023/10/18 05:39:33;;;;;;;37.28;16.00;;;;;;;1.18;100.00;100560.31;5085449;28;20024;-81
2023/10/18 05:42:13;;;;;;;42.03;17.58;;;;;;;1.47;100.00;100593.28;5078946;28;20024;-80
2023/10/18 05:44:44;;;;;;;36.35;16.73;;;;;;;1.41;100.00;100577.25;5076161;28;20533;-78
2023/10/18 05:47:10;;;;;;;35.28;17.27;;;;;;;1.34;100.00;100560.50;5059209;28;20052;-79
2023/10/18 05:49:41;;;;;;;35.47;18.45;;;;;;;1.42;100.00;100579.66;5076654;28;20059;-79
2023/10/18 05:54:37;;;;;;;43.38;17.52;;;;;;;1.41;100.00;100578.06;5077371;28;20024;-82
2023/10/18 05:57:05;;;;;;;36.85;17.23;;;;;;;1.50;100.00;100590.84;5044854;28;20083;-84
2023/10/18 05:59:32;;;;;;;40.03;18.85;;;;;;;1.50;100.00;100579.56;5060343;28;20096;-81
2023/10/18 06:01:58;;;;;;;33.35;17.85;;;;;;;1.52;100.00;100582.75;5077948;28;20088;-80
2023/10/18 06:04:25;;;;;;;39.55;18.02;;;;;;;1.64;100.00;100596.25;5048356;28;20554;-81
2023/10/18 06:07:04;;;;;;;38.33;17.17;;;;;;;1.70;100.00;100598.16;5078394;28;20032;-83
2023/10/18 06:09:44;;;;;;;30.83;15.52;;;;;;;1.72;100.00;100586.47;5080519;28;20469;-80
2023/10/18 06:12:30;;;;;;;37.55;17.48;;;;;;;1.82;100.00;100589.13;5093797;28;20503;-80
2023/10/18 06:14:57;;;;;;;37.83;17.10;;;;;;;1.83;100.00;100582.28;5093918;28;20036;-79
2023/10/18 06:17:26;;;;;;;50.28;19.55;;;;;;;1.82;100.00;100577.06;5092618;28;20036;-80
2023/10/18 06:19:56;;;;;;;39.35;18.25;;;;;;;1.89;100.00;100586.22;5092194;28;20535;-81
2023/10/18 06:23:07;;;;;;;43.13;19.25;;;;;;;2.02;100.00;100592.03;5091735;28;20522;-79
2023/10/18 06:25:34;;;;;;;37.25;17.95;;;;;;;1.89;100.00;100557.25;5086508;28;20073;-78
2023/10/18 06:28:00;;;;;;;35.30;17.67;;;;;;;1.98;100.00;100563.13;5094046;28;20028;-81
2023/10/18 06:30:31;;;;;;;38.63;17.42;;;;;;;2.16;100.00;100582.53;5093192;28;20532;-80
2023/10/18 06:32:56;;;;;;;38.80;18.88;;;;;;;2.28;100.00;100588.38;5090297;28;20029;-78
2023/10/18 06:35:26;;;;;;;36.78;17.58;;;;;;;2.24;100.00;100570.72;5091128;28;20023;-80
2023/10/18 06:37:54;;;;;;;32.83;16.83;;;;;;;2.41;100.00;100588.56;5095038;28;20104;-80
2023/10/18 06:41:03;;;;;;;40.90;17.85;;;;;;;2.28;100.00;100570.66;5093136;28;20035;-79
2023/10/18 06:43:12;;;;;;;36.15;18.88;;;;;;;2.04;100.00;100527.59;5083312;28;20107;-79
2023/10/18 06:45:40;;;;;;;34.95;17.02;;;;;;;2.22;100.00;100550.63;5095118;28;20111;-81
2023/10/18 06:48:08;;;;;;;35.25;16.85;;;;;;;2.36;100.00;100569.31;5095138;28;20023;-79
2023/10/18 06:50:46;;;;;;;39.40;16.58;;;;;;;2.47;100.00;100575.56;5096532;28;20065;-79
2023/10/18 06:53:27;;;;;;;47.88;18.55;;;;;;;2.32;100.00;100541.19;5095663;28;20024;-80
2023/10/18 06:55:58;;;;;;;37.88;17.30;;;;;;;2.46;100.00;100550.59;5096431;28;20052;-79
2023/10/18 07:01:00;;;;;;;34.58;16.63;;;;;;;2.93;100.00;100585.16;5095826;28;20274;-79
2023/10/18 07:03:27;;;;;;;33.05;17.00;;;;;;;2.91;100.00;100557.38;5095827;28;20346;-76
2023/10/18 07:05:56;;;;;;;28.83;15.80;;;;;;;3.53;100.00;100601.59;5093627;28;20040;-78
2023/10/18 07:08:29;;;;;;;29.13;14.52;;;;;;;4.33;100.00;100594.47;5094822;28;20103;-78
2023/10/18 07:10:56;;;;;;;31.48;17.80;;;;;;;5.35;100.00;100585.16;5077363;28;20020;-77
2023/10/18 07:13:42;;;;;;;31.00;15.25;;;;;;;6.31;100.00;100573.66;5094534;28;20020;-79
2023/10/18 07:19:49;;;;;;;29.00;14.15;;;;;;;8.54;100.00;100564.25;5022909;28;20357;-81
2023/10/18 07:21:49;;;;;;;25.60;13.43;;;;;;;9.42;100.00;100554.56;5069455;28;20481;-81
2023/10/18 07:24:21;;;;;;;26.30;13.70;;;;;;;10.19;100.00;100563.47;5075561;28;20027;-80
2023/10/18 07:26:53;;;;;;;;;;;;;;;10.80;100.00;100570.56;5059683;28;20527;-81
2023/10/18 07:29:20;;;;;;;23.92;12.68;;;;;;;11.44;100.00;100570.00;5094143;28;20376;-81
2023/10/18 07:31:59;;;;;;;23.92;12.43;;;;;;;11.89;100.00;100554.38;5059901;28;20028;-80
2023/10/18 07:34:28;;;;;;;22.13;11.35;;;;;;;12.44;100.00;100571.66;5093689;28;20537;-81
2023/10/18 07:36:55;;;;;;;23.42;12.88;;;;;;;12.63;100.00;100547.19;5094082;28;20028;-80
2023/10/18 07:39:25;;;;;;;23.77;11.63;;;;;;;13.05;100.00;100548.72;5076587;28;20414;-80
2023/10/18 07:41:53;;;;;;;19.10;11.90;;;;;;;13.48;100.00;100564.84;5076962;28;20012;-78
2023/10/18 07:44:18;;;;;;;20.83;11.45;;;;;;;13.61;100.00;100550.09;5109533;28;20403;-81
2023/10/18 07:46:45;;;;;;;17.85;10.85;;;;;;;13.90;100.00;100554.78;5076604;28;20528;-81
2023/10/18 07:49:14;;;;;;;21.58;12.25;;;;;;;14.01;100.00;100545.47;5094947;28;20016;-78
2023/10/18 07:51:48;;;;;;;20.65;12.27;;;;;;;14.18;100.00;100550.03;5076311;28;20118;-79
2023/10/18 07:54:20;;;;;;;21.23;11.23;;;;;;;14.25;100.00;100517.16;5094537;28;20028;-80
2023/10/18 07:56:54;;;;;;;23.98;12.63;;;;;;;14.66;100.00;100538.59;5094105;28;20122;-78
2023/10/18 07:59:28;;;;;;;19.95;10.80;;;;;;;14.94;100.00;100546.53;5094559;28;20031;-79
2023/10/18 08:02:12;;;;;;;20.23;10.52;;;;;;;15.11;100.00;100536.69;5094472;28;20020;-79
2023/10/18 08:04:43;;;;;;;19.02;12.20;;;;;;;15.45;100.00;100536.75;5079340;28;20028;-81
2023/10/18 08:07:27;;;;;;;15.55;10.63;;;;;;;15.64;100.00;100532.06;5075933;28;20028;-80
2023/10/18 08:09:58;;;;;;;18.50;12.32;;;;;;;15.71;100.00;100522.13;5076622;28;20056;-80
2023/10/18 08:12:33;;;;;;;20.23;11.07;;;;;;;15.62;100.00;100523.16;5093878;28;20028;-78
2023/10/18 08:14:59;;;;;;;22.67;12.40;;;;;;;15.76;100.00;100547.28;5109863;28;20032;-79
2023/10/18 08:17:42;;;;;;;19.10;12.38;;;;;;;15.71;100.00;100548.06;5093949;28;20073;-80
2023/10/18 08:22:52;;;;;;;16.83;11.65;;;;;;;15.53;100.00;100520.50;5094543;28;20149;-78
2023/10/18 08:25:42;;;;;;;19.15;10.93;;;;;;;15.51;100.00;100514.50;5076178;28;20119;-79
2023/10/18 08:28:06;;;;;;;20.23;11.30;;;;;;;15.53;100.00;100515.53;5077898;28;20106;-80
2023/10/18 08:33:08;;;;;;;13.88;10.57;;;;;;;15.51;100.00;100521.03;5094738;28;20032;-80
2023/10/18 08:35:36;;;;;;;19.60;12.00;;;;;;;15.44;100.00;100533.06;5094360;28;20052;-81
2023/10/18 08:38:16;;;;;;;19.77;11.48;;;;;;;15.35;100.00;100529.66;5059545;28;20122;-79
2023/10/18 08:41:11;;;;;;;16.13;9.90;;;;;;;15.22;100.00;100530.13;5075483;28;20508;-80
2023/10/18 08:43:54;;;;;;;15.98;10.38;;;;;;;15.06;100.00;100530.91;5093449;28;20024;-79
2023/10/18 08:46:24;;;;;;;;;;;;;;;14.84;100.00;100520.88;5093923;28;20028;-79
2023/10/18 08:48:55;;;;;;;19.30;10.38;;;;;;;14.67;100.00;100522.13;5075792;28;19977;-79
2023/10/18 08:51:26;;;;;;;17.80;10.82;;;;;;;14.42;100.00;100512.31;5075110;28;20139;-79
2023/10/18 08:54:01;;;;;;;14.02;9.77;;;;;;;14.30;100.00;100514.31;5097304;28;20095;-80
2023/10/18 08:56:33;;;;;;;16.98;10.23;;;;;;;14.28;100.00;100510.41;5075726;28;20151;-79
2023/10/18 08:58:59;;;;;;;18.92;10.07;;;;;;;14.21;100.00;100499.38;5075698;28;20074;-80
2023/10/18 09:01:25;;;;;;;20.40;10.57;;;;;;;14.31;100.00;100510.16;5058982;28;20119;-81
2023/10/18 09:03:51;;;;;;;15.20;9.82;;;;;;;14.32;100.00;100514.59;5076268;28;20031;-83
2023/10/18 09:06:30;;;;;;;17.35;9.63;;;;;;;14.40;100.00;100506.28;5077693;28;20029;-80
2023/10/18 09:09:12;;;;;;;19.80;9.90;;;;;;;14.41;100.00;100502.09;5061971;28;20078;-82
2023/10/18 09:11:53;;;;;;;13.57;8.68;;;;;;;14.41;100.00;100487.72;5076625;28;20116;-81
2023/10/18 09:14:27;;;;;;;14.27;9.23;;;;;;;14.41;100.00;100473.34;5076086;28;20032;-81
2023/10/18 09:17:00;;;;;;;14.57;8.80;;;;;;;14.35;100.00;100467.56;5077499;28;20104;-78
2023/10/18 09:19:27;;;;;;;14.55;8.57;;;;;;;14.74;100.00;100501.47;5078676;28;20035;-78
2023/10/18 09:22:01;;;;;;;14.60;8.77;;;;;;;14.52;100.00;100463.97;5062016;28;20024;-82
2023/10/18 09:24:43;;;;;;;16.35;9.10;;;;;;;14.83;100.00;100501.25;5085728;28;20021;-81
2023/10/18 09:27:09;;;;;;;15.90;9.52;;;;;;;14.90;100.00;100503.63;5084445;28;20031;-83
2023/10/18 09:29:36;;;;;;;17.77;8.35;;;;;;;15.00;100.00;100501.31;5084583;28;20020;-79
2023/10/18 09:32:04;;;;;;;17.00;8.90;;;;;;;14.90;100.00;100474.06;5081525;28;20543;-82
2023/10/18 09:34:42;;;;;;;14.73;8.38;;;;;;;14.84;100.00;100451.03;5070402;28;20024;-82
2023/10/18 09:37:15;;;;;;;15.75;8.10;;;;;;;15.10;100.00;100502.63;5094144;28;20028;-85
2023/10/18 09:39:43;;;;;;;17.02;8.98;;;;;;;14.86;100.00;100450.53;5088708;28;20028;-86
2023/10/18 09:42:12;;;;;;;16.38;9.02;;;;;;;15.02;100.00;100461.28;5080424;28;20040;-87
2023/10/18 09:44:41;;;;;;;12.20;7.55;;;;;;;14.94;100.00;100449.50;5086048;28;20028;-88
2023/10/18 09:47:07;;;;;;;15.38;8.18;;;;;;;15.08;100.00;100462.06;5079384;28;20024;-89
2023/10/18 09:49:35;;;;;;;10.35;6.95;;;;;;;15.11;100.00;100467.59;5063773;28;20043;-86
2023/10/18 09:52:03;;;;;;;16.67;8.93;;;;;;;14.86;100.00;100421.75;5060482;28;20477;-86
2023/10/18 09:54:36;;;;;;;13.02;8.40;;;;;;;14.97;100.00;100421.78;5061718;28;20034;-82
2023/10/18 09:57:08;;;;;;;11.38;7.70;;;;;;;15.17;100.00;100459.72;5078521;28;20132;-90
2023/10/18 09:59:47;;;;;;;11.50;7.57;;;;;;;15.08;100.00;100456.31;5085554;28;20784;-88
2023/10/18 10:02:30;;;;;;;15.10;8.13;;;;;;;14.60;100.00;100393.19;5079242;28;20027;-90
2023/10/18 10:05:24;;;;;;;10.50;6.43;;;;;;;14.40;100.00;100371.91;5078942;28;20029;-87
2023/10/18 10:07:55;;;;;;;10.23;6.57;;;;;;;14.90;100.00;100446.09;5060740;28;20052;-79
2023/10/18 10:13:13;;;;;;;10.57;6.30;;;;;;;14.83;100.00;100432.97;5076170;28;20266;-81
2023/10/18 10:15:39;;;;;;;11.60;6.25;;;;;;;14.54;100.00;100390.25;5078028;28;20059;-82
2023/10/18 10:18:09;;;;;;;10.27;5.82;;;;;;;14.69;100.00;100427.44;5077207;28;20409;-82
2023/10/18 10:20:40;;;;;;;7.22;4.90;;;;;;;14.49;100.00;100402.53;5059416;28;20094;-85
2023/10/18 10:23:15;;;;;;;8.63;4.75;;;;;;;14.36;100.00;100396.47;5075243;28;20117;-82
2023/10/18 10:25:49;;;;;;;9.95;5.72;;;;;;;14.46;100.00;100415.06;5059041;28;20040;-85
2023/10/18 10:31:58;;;;;;;9.15;4.68;;;;;;;14.18;100.00;100406.31;5063668;28;20554;-82
2023/10/18 10:34:34;;;;;;;11.80;5.85;;;;;;;14.15;100.00;100407.38;5102689;28;20428;-82
2023/10/18 10:37:08;;;;;;;9.07;5.10;;;;;;;14.05;100.00;100399.47;5075362;28;20039;-83
2023/10/18 10:39:49;;;;;;;7.45;4.65;;;;;;;13.99;100.00;100396.56;5075263;28;20041;-77
2023/10/18 10:42:44;;;;;;;11.10;5.55;;;;;;;14.00;100.00;100406.75;5075519;28;20047;-80
2023/10/18 10:45:53;;;;;;;10.10;5.55;;;;;;;13.97;100.00;100396.31;5074855;28;20059;-80
2023/10/18 10:48:31;;;;;;;7.65;4.72;;;;;;;13.89;100.00;100398.06;5096768;28;20028;-84
2023/10/18 10:51:37;;;;;;;10.93;5.88;;;;;;;13.84;100.00;100393.88;5096430;28;20461;-81
2023/10/18 10:54:14;;;;;;;8.02;4.97;;;;;;;13.74;100.00;100386.00;5053705;28;20061;-79
2023/10/18 10:56:48;;;;;;;8.63;5.47;;;;;;;13.58;100.00;100369.44;5071786;28;20058;-79
2023/10/18 10:59:22;;;;;;;9.48;5.55;;;;;;;13.52;100.00;100360.78;5116093;28;20482;-83
2023/10/18 11:02:06;;;;;;;10.65;5.03;;;;;;;13.58;100.00;100364.50;5116613;28;20099;-85
2023/10/18 11:04:51;;;;;;;8.18;5.15;;;;;;;13.50;100.00;100363.34;5092535;28;20098;-80
2023/10/18 11:07:24;;;;;;;9.57;5.00;;;;;;;13.41;100.00;100347.13;5098766;28;20088;-81
2023/10/18 11:09:59;;;;;;;8.32;5.60;;;;;;;13.37;100.00;100355.19;5116120;28;20042;-81
2023/10/18 11:12:27;;;;;;;7.68;4.40;;;;;;;13.32;100.00;100346.53;5114671;28;20031;-81
2023/10/18 11:14:53;;;;;;;6.10;4.25;;;;;;;13.19;100.00;100349.84;5096663;28;20373;-79
2023/10/18 11:17:23;;;;;;;10.75;4.75;;;;;;;13.19;100.00;100341.25;5096619;28;20031;-78
2023/10/18 11:19:58;;;;;;;11.13;4.70;;;;;;;13.19;100.00;100341.25;5094213;28;20043;-80
2023/10/18 11:22:30;;;;;;;8.80;4.63;;;;;;;13.13;100.00;100334.66;5093772;28;20028;-78
2023/10/18 11:25:01;;;;;;;8.05;5.22;;;;;;;13.10;100.00;100339.31;5095635;28;20020;-81
2023/10/18 11:27:33;;;;;;;8.65;5.03;;;;;;;13.00;100.00;100329.34;5085811;28;20551;-80
2023/10/18 11:32:48;;;;;;;6.05;4.03;;;;;;;12.96;100.00;100320.19;5078753;28;20369;-80
2023/10/18 11:35:26;;;;;;;5.75;3.75;;;;;;;13.08;100.00;100332.53;5075733;28;20059;-81
2023/10/18 11:37:51;;;;;;;6.57;3.90;;;;;;;13.08;100.00;100329.66;5093976;28;20373;-80
2023/10/18 11:40:51;;;;;;;11.02;4.47;;;;;;;13.04;100.00;100323.38;5096061;28;20465;-80
2023/10/18 11:43:10;;;;;;;6.55;4.25;;;;;;;13.05;100.00;100330.66;5087315;28;20024;-78
2023/10/18 11:45:38;;;;;;;12.20;4.75;;;;;;;13.05;100.00;100334.31;5079242;28;20028;-80
2023/10/18 11:48:06;;;;;;;7.82;3.85;;;;;;;13.03;100.00;100334.06;5094393;28;20020;-81
2023/10/18 11:50:47;;;;;;;5.55;4.05;;;;;;;12.95;100.00;100318.59;5061233;28;20020;-78
2023/10/18 11:53:24;;;;;;;6.30;3.65;;;;;;;12.92;100.00;100313.88;5093707;28;20468;-79
2023/10/18 11:56:02;;;;;;;8.82;5.05;;;;;;;12.86;100.00;100301.59;5061666;28;20032;-80
2023/10/18 11:58:30;;;;;;;8.77;4.15;;;;;;;12.90;100.00;100315.72;5096221;28;20024;-82
2023/10/18 12:01:05;;;;;;;11.75;4.28;;;;;;;12.94;100.00;100311.31;5096639;28;20464;-81
2023/10/18 12:03:38;;;;;;;6.45;3.58;;;;;;;12.79;100.00;100286.94;5076909;28;20012;-78
2023/10/18 12:06:04;;;;;;;6.38;3.80;;;;;;;13.01;100.00;100310.03;5114727;28;20020;-80
2023/10/18 12:11:38;;;;;;;6.15;3.67;;;;;;;13.06;100.00;100306.44;5077570;28;20028;-80
2023/10/18 12:14:08;;;;;;;6.40;4.00;;;;;;;12.93;100.00;100275.31;5094119;28;20043;-81
2023/10/18 12:16:34;;;;;;;6.63;3.17;;;;;;;13.09;100.00;100288.22;5092949;28;20020;-80
2023/10/18 12:19:00;;;;;;;4.55;3.80;;;;;;;13.07;100.00;100287.94;5078917;28;20019;-78
2023/10/18 12:21:29;;;;;;;7.38;3.60;;;;;;;13.08;100.00;100290.28;5075574;28;20038;-78